createdAt,value
2018-11-11T00:00:18.445Z,12.94
2018-11-11T00:02:46.235Z,12.92
2018-11-11T00:05:13.791Z,12.86
2018-11-11T00:07:41.894Z,12.84
2018-11-11T00:10:09.403Z,12.79
2018-11-11T00:12:37.351Z,12.80
2018-11-11T00:15:06.433Z,12.83
2018-11-11T00:17:33.952Z,12.90
2018-11-11T00:20:01.490Z,12.82
2018-11-11T00:22:29.085Z,12.75
2018-11-11T00:24:56.565Z,12.72
2018-11-11T00:27:24.306Z,12.63
2018-11-11T00:29:51.761Z,12.61
2018-11-11T00:32:19.321Z,12.66
2018-11-11T00:34:46.837Z,12.69
2018-11-11T00:37:14.683Z,12.74
2018-11-11T00:39:42.242Z,12.71
2018-11-11T00:42:09.720Z,12.67
2018-11-11T00:44:37.181Z,12.68
2018-11-11T00:47:05.030Z,12.67
2018-11-11T00:49:32.738Z,12.64
2018-11-11T00:52:00.298Z,12.60
2018-11-11T00:54:27.708Z,12.63
2018-11-11T00:56:55.237Z,12.74
2018-11-11T00:59:22.645Z,12.68
2018-11-11T01:01:50.349Z,12.70
2018-11-11T01:04:17.933Z,12.71
2018-11-11T01:06:45.688Z,12.70
2018-11-11T01:09:13.288Z,12.62
2018-11-11T01:11:40.958Z,12.58
2018-11-11T01:14:08.435Z,12.57
2018-11-11T01:16:36.005Z,12.63
2018-11-11T01:19:03.726Z,12.61
2018-11-11T01:21:31.214Z,12.64
2018-11-11T01:23:58.679Z,12.61
2018-11-11T01:26:26.376Z,12.60
2018-11-11T01:28:53.952Z,12.61
2018-11-11T01:31:21.494Z,12.58
2018-11-11T01:33:49.203Z,12.57
2018-11-11T01:36:17.348Z,12.60
2018-11-11T01:38:45.433Z,12.61
2018-11-11T01:41:12.946Z,12.60
2018-11-11T01:43:40.510Z,12.58
2018-11-11T01:46:08.069Z,12.64
2018-11-11T01:48:35.864Z,12.66
2018-11-11T01:51:03.364Z,12.73
2018-11-11T01:56:08.110Z,12.79
2018-11-11T01:58:37.265Z,12.81
2018-11-11T02:01:04.942Z,12.84
2018-11-11T02:03:32.484Z,12.87
2018-11-11T02:06:00.042Z,12.84
2018-11-11T02:08:28.545Z,12.76
2018-11-11T02:10:57.334Z,12.61
2018-11-11T02:13:25.158Z,12.46
2018-11-11T02:15:52.594Z,12.29
2018-11-11T02:18:20.155Z,12.13
2018-11-11T02:20:47.640Z,11.87
2018-11-11T02:23:15.162Z,11.66
2018-11-11T02:25:42.650Z,11.67
2018-11-11T02:28:10.226Z,11.52
2018-11-11T02:30:37.723Z,11.45
2018-11-11T02:33:05.573Z,11.33
2018-11-11T02:35:33.030Z,11.12
2018-11-11T02:38:00.545Z,10.95
2018-11-11T02:40:28.151Z,10.83
2018-11-11T02:42:55.534Z,10.78
2018-11-11T02:45:23.176Z,10.87
2018-11-11T02:47:50.826Z,10.86
2018-11-11T02:50:19.064Z,10.87
2018-11-11T02:52:47.397Z,10.76
2018-11-11T02:55:15.451Z,10.71
2018-11-11T02:57:43.614Z,10.81
2018-11-11T03:00:13.327Z,10.80
2018-11-11T03:02:41.637Z,10.79
2018-11-11T03:05:10.421Z,10.82
2018-11-11T03:07:38.249Z,10.74
2018-11-11T03:10:06.233Z,10.68
2018-11-11T03:12:33.848Z,10.79
2018-11-11T03:15:01.273Z,10.86
2018-11-11T03:17:29.046Z,10.91
2018-11-11T03:19:56.788Z,10.80
2018-11-11T03:22:24.379Z,10.64
2018-11-11T03:24:52.013Z,10.46
2018-11-11T03:27:19.629Z,10.35
2018-11-11T03:29:47.215Z,10.23
2018-11-11T03:32:14.716Z,10.10
2018-11-11T03:34:42.758Z,10.08
2018-11-11T03:37:10.310Z,10.22
2018-11-11T03:39:37.804Z,10.27
2018-11-11T03:42:05.614Z,10.26
2018-11-11T03:44:33.079Z,10.28
2018-11-11T03:47:00.566Z,10.14
2018-11-11T03:49:28.251Z,10.27
2018-11-11T03:51:55.825Z,10.24
2018-11-11T03:54:23.305Z,10.24
2018-11-11T03:56:50.926Z,10.18
2018-11-11T03:59:18.341Z,10.17
2018-11-11T04:01:45.988Z,10.18
2018-11-11T04:04:13.409Z,10.23
2018-11-11T04:06:41.510Z,10.12
2018-11-11T04:09:10.875Z,9.98
2018-11-11T04:11:38.871Z,9.87
2018-11-11T04:14:06.530Z,9.95
2018-11-11T04:16:34.171Z,10.06
2018-11-11T04:19:01.628Z,10.06
2018-11-11T04:21:29.074Z,10.42
2018-11-11T04:23:56.526Z,10.54
2018-11-11T04:26:24.003Z,10.50
2018-11-11T04:28:51.597Z,10.42
2018-11-11T04:31:19.206Z,10.38
2018-11-11T04:33:46.658Z,10.53
2018-11-11T04:36:14.138Z,10.68
2018-11-11T04:38:41.619Z,10.61
2018-11-11T04:41:09.082Z,10.61
2018-11-11T04:43:36.531Z,10.66
2018-11-11T04:46:04.132Z,10.72
2018-11-11T04:48:31.632Z,10.76
2018-11-11T04:50:59.071Z,10.86
2018-11-11T04:53:26.546Z,10.95
2018-11-11T04:55:54.006Z,11.07
2018-11-11T04:58:21.693Z,11.17
2018-11-11T05:00:49.185Z,11.30
2018-11-11T05:03:16.612Z,11.27
2018-11-11T05:05:44.003Z,11.29
2018-11-11T05:08:11.569Z,11.30
2018-11-11T05:10:39.022Z,11.35
2018-11-11T05:13:06.462Z,11.38
2018-11-11T05:15:35.559Z,11.42
2018-11-11T05:18:02.948Z,11.41
2018-11-11T05:20:30.558Z,11.39
2018-11-11T05:22:58.079Z,11.40
2018-11-11T05:25:25.643Z,11.41
2018-11-11T05:27:53.182Z,11.45
2018-11-11T05:30:20.817Z,11.47
2018-11-11T05:32:48.248Z,11.46
2018-11-11T05:35:15.955Z,11.48
2018-11-11T05:37:43.420Z,11.50
2018-11-11T05:40:11.943Z,11.63
2018-11-11T05:42:40.016Z,11.68
2018-11-11T05:45:08.530Z,11.72
2018-11-11T05:47:36.113Z,11.79
2018-11-11T05:50:03.937Z,11.84
2018-11-11T05:52:31.387Z,11.92
2018-11-11T05:54:58.859Z,11.90
2018-11-11T05:57:26.387Z,11.95
2018-11-11T05:59:53.933Z,11.95
2018-11-11T06:02:21.397Z,12.03
2018-11-11T06:04:48.924Z,12.00
2018-11-11T06:07:16.473Z,11.99
2018-11-11T06:09:43.964Z,11.94
2018-11-11T06:12:11.388Z,11.93
2018-11-11T06:14:39.087Z,12.03
2018-11-11T06:17:06.574Z,12.08
2018-11-11T06:19:34.015Z,12.11
2018-11-11T06:22:01.565Z,12.05
2018-11-11T06:24:29.152Z,12.01
2018-11-11T06:26:56.672Z,12.05
2018-11-11T06:29:24.155Z,12.12
2018-11-11T06:31:51.695Z,12.12
2018-11-11T06:34:19.136Z,12.12
2018-11-11T06:36:46.619Z,12.06
2018-11-11T06:39:14.047Z,12.04
2018-11-11T06:41:41.502Z,12.04
2018-11-11T06:44:09.393Z,11.98
2018-11-11T06:46:36.901Z,11.95
2018-11-11T06:49:04.623Z,11.93
2018-11-11T06:51:32.248Z,11.89
2018-11-11T06:53:59.655Z,11.89
2018-11-11T06:56:27.323Z,11.80
2018-11-11T06:58:55.001Z,11.80
2018-11-11T07:01:22.544Z,11.82
2018-11-11T07:03:54.386Z,11.82
2018-11-11T07:06:22.286Z,11.77
2018-11-11T07:08:49.998Z,11.78
2018-11-11T07:11:18.385Z,11.71
2018-11-11T07:13:45.935Z,11.70
2018-11-11T07:16:13.966Z,11.64
2018-11-11T07:18:42.264Z,11.63
2018-11-11T07:21:09.984Z,11.64
2018-11-11T07:23:37.463Z,11.61
2018-11-11T07:26:05.290Z,11.63
2018-11-11T07:28:32.795Z,11.71
2018-11-11T07:31:00.462Z,11.81
2018-11-11T07:33:28.338Z,11.90
2018-11-11T07:35:55.850Z,11.90
2018-11-11T07:38:23.240Z,11.99
2018-11-11T07:40:50.839Z,12.00
2018-11-11T07:43:18.594Z,12.00
2018-11-11T07:45:46.426Z,12.01
2018-11-11T07:48:14.023Z,12.11
2018-11-11T07:50:41.551Z,12.19
2018-11-11T07:53:09.012Z,12.90
2018-11-11T07:55:36.533Z,14.61
2018-11-11T07:58:04.096Z,15.79
2018-11-11T08:00:31.605Z,16.43
2018-11-11T08:02:59.290Z,16.63
2018-11-11T08:05:26.742Z,16.56
2018-11-11T08:07:54.182Z,16.39
2018-11-11T08:10:33.042Z,16.55
2018-11-11T08:13:00.514Z,16.64
2018-11-11T08:15:27.925Z,16.44
2018-11-11T08:17:55.614Z,16.12
2018-11-11T08:20:23.310Z,15.77
2018-11-11T08:22:50.750Z,15.48
2018-11-11T08:25:18.371Z,15.20
2018-11-11T08:27:45.919Z,14.93
2018-11-11T08:30:13.560Z,14.66
2018-11-11T08:32:41.091Z,14.53
2018-11-11T08:35:09.279Z,14.38
2018-11-11T08:37:37.262Z,14.62
2018-11-11T08:40:05.574Z,14.79
2018-11-11T08:42:33.015Z,14.68
2018-11-11T08:45:00.594Z,14.71
2018-11-11T08:47:28.125Z,14.88
2018-11-11T08:49:55.664Z,15.02
2018-11-11T08:52:23.231Z,14.93
2018-11-11T08:54:50.766Z,14.72
2018-11-11T08:57:18.357Z,14.48
2018-11-11T08:59:45.877Z,14.25
2018-11-11T09:02:13.495Z,14.11
2018-11-11T09:04:41.110Z,14.10
2018-11-11T09:07:08.758Z,13.93
2018-11-11T09:09:36.259Z,13.86
2018-11-11T09:12:04.211Z,13.86
2018-11-11T09:14:31.746Z,13.87
2018-11-11T09:16:59.353Z,13.84
2018-11-11T09:19:26.797Z,13.90
2018-11-11T09:21:54.351Z,13.83
2018-11-11T09:24:21.829Z,13.90
2018-11-11T09:26:49.331Z,13.98
2018-11-11T09:29:16.894Z,13.88
2018-11-11T09:31:44.460Z,13.89
2018-11-11T09:34:11.879Z,13.86
2018-11-11T09:36:39.347Z,13.87
2018-11-11T09:39:09.381Z,13.96
2018-11-11T09:41:36.751Z,13.97
2018-11-11T09:44:04.917Z,14.01
2018-11-11T09:46:32.559Z,14.11
2018-11-11T09:49:00.044Z,14.14
2018-11-11T09:51:27.603Z,14.12
2018-11-11T09:53:55.146Z,14.21
2018-11-11T09:56:22.665Z,14.25
2018-11-11T09:58:50.156Z,14.27
2018-11-11T10:01:17.707Z,14.39
2018-11-11T10:04:04.134Z,14.39
2018-11-11T10:07:08.117Z,14.42
2018-11-11T10:09:44.807Z,14.41
2018-11-11T10:12:17.732Z,14.34
2018-11-11T10:14:51.007Z,14.28
2018-11-11T10:18:21.866Z,14.45
2018-11-11T10:20:54.952Z,14.46
2018-11-11T10:23:33.171Z,14.57
2018-11-11T10:26:07.414Z,14.82
2018-11-11T10:28:40.674Z,14.92
2018-11-11T10:31:12.504Z,14.98
2018-11-11T10:33:44.754Z,15.05
2018-11-11T10:36:19.823Z,15.25
2018-11-11T10:38:53.118Z,15.46
2018-11-11T10:41:26.188Z,15.52
2018-11-11T10:43:57.593Z,15.61
2018-11-11T10:46:28.589Z,15.85
2018-11-11T10:49:01.248Z,16.02
2018-11-11T10:51:28.937Z,16.10
2018-11-11T10:53:56.379Z,16.09
2018-11-11T10:56:23.902Z,16.13
2018-11-11T10:58:51.732Z,16.45
2018-11-11T11:01:25.027Z,17.09
2018-11-11T11:03:52.483Z,17.78
2018-11-11T11:06:25.839Z,18.08
2018-11-11T11:08:59.147Z,18.00
2018-11-11T11:11:26.801Z,17.82
2018-11-11T11:13:54.314Z,17.73
2018-11-11T11:16:21.810Z,17.59
2018-11-11T11:18:49.331Z,17.45
2018-11-11T11:21:16.899Z,17.38
2018-11-11T11:23:44.352Z,17.29
2018-11-11T11:26:11.945Z,17.11
2018-11-11T11:28:39.407Z,16.89
2018-11-11T11:31:06.865Z,16.74
2018-11-11T11:33:34.388Z,16.85
2018-11-11T11:36:01.861Z,16.98
2018-11-11T11:38:29.414Z,17.05
2018-11-11T11:40:56.933Z,17.11
2018-11-11T11:43:24.354Z,17.13
2018-11-11T11:45:51.887Z,17.10
2018-11-11T11:48:19.640Z,17.08
2018-11-11T11:50:47.181Z,17.12
2018-11-11T11:53:14.758Z,17.19
2018-11-11T11:55:42.401Z,17.29
2018-11-11T11:58:20.843Z,17.34
2018-11-11T12:00:48.847Z,17.46
2018-11-11T12:03:16.383Z,17.76
2018-11-11T12:05:44.539Z,17.92
2018-11-11T12:08:12.064Z,17.85
2018-11-11T12:10:39.589Z,17.87
2018-11-11T12:13:08.141Z,17.83
2018-11-11T12:15:35.817Z,17.76
2018-11-11T12:18:03.563Z,17.80
2018-11-11T12:20:31.281Z,17.87
2018-11-11T12:22:59.170Z,17.91
2018-11-11T12:25:26.619Z,17.98
2018-11-11T12:27:54.295Z,18.05
2018-11-11T12:30:22.551Z,18.11
2018-11-11T12:32:50.154Z,17.95
2018-11-11T12:35:17.690Z,17.79
2018-11-11T12:37:45.170Z,17.61
2018-11-11T12:40:12.963Z,17.44
2018-11-11T12:42:42.181Z,17.41
2018-11-11T12:45:16.607Z,17.52
2018-11-11T12:47:44.248Z,17.61
2018-11-11T12:50:12.823Z,17.67
2018-11-11T12:52:40.235Z,17.53
2018-11-11T12:55:08.115Z,17.29
2018-11-11T12:57:35.880Z,17.12
2018-11-11T13:00:04.305Z,16.96
2018-11-11T13:02:32.039Z,16.95
2018-11-11T13:04:59.538Z,17.00
2018-11-11T13:07:27.044Z,17.00
2018-11-11T13:09:54.529Z,16.93
2018-11-11T13:12:22.404Z,17.08
2018-11-11T13:14:49.867Z,17.04
2018-11-11T13:17:17.415Z,16.90
2018-11-11T13:19:45.036Z,16.82
2018-11-11T13:22:12.787Z,16.83
2018-11-11T13:24:40.382Z,16.89
2018-11-11T13:27:08.242Z,17.07
2018-11-11T13:29:35.763Z,17.21
2018-11-11T13:32:03.617Z,17.37
2018-11-11T13:34:31.090Z,17.49
2018-11-11T13:36:58.742Z,17.62
2018-11-11T13:39:26.358Z,17.66
2018-11-11T13:41:54.118Z,17.64
2018-11-11T13:44:21.909Z,17.60
2018-11-11T13:46:49.562Z,17.48
2018-11-11T13:49:16.930Z,17.35
2018-11-11T13:51:44.524Z,17.26
2018-11-11T13:54:11.956Z,17.15
2018-11-11T13:56:39.476Z,17.07
2018-11-11T13:59:07.194Z,17.12
2018-11-11T14:01:34.844Z,17.33
2018-11-11T14:04:02.460Z,17.58
2018-11-11T14:06:30.015Z,17.81
2018-11-11T14:08:57.692Z,18.03
2018-11-11T14:11:25.373Z,18.01
2018-11-11T14:13:53.498Z,17.77
2018-11-11T14:16:20.948Z,17.50
2018-11-11T14:18:48.574Z,17.23
2018-11-11T14:21:15.949Z,17.05
2018-11-11T14:23:43.406Z,16.79
2018-11-11T14:26:11.106Z,16.50
2018-11-11T14:28:38.659Z,16.45
2018-11-11T14:31:06.429Z,16.54
2018-11-11T14:33:33.968Z,16.43
2018-11-11T14:36:01.701Z,16.29
2018-11-11T14:38:29.282Z,16.01
2018-11-11T14:40:56.869Z,15.80
2018-11-11T14:43:24.396Z,15.75
2018-11-11T14:45:52.040Z,15.79
2018-11-11T14:48:19.498Z,15.80
2018-11-11T14:50:46.968Z,15.87
2018-11-11T14:53:14.413Z,15.98
2018-11-11T14:55:41.872Z,15.93
2018-11-11T14:58:09.401Z,15.90
2018-11-11T15:00:36.971Z,15.92
2018-11-11T15:03:08.820Z,16.09
2018-11-11T15:05:36.361Z,16.27
2018-11-11T15:08:04.119Z,16.38
2018-11-11T15:10:31.664Z,16.41
2018-11-11T15:12:59.405Z,16.43
2018-11-11T15:15:27.127Z,16.36
2018-11-11T15:17:55.535Z,16.23
2018-11-11T15:20:23.097Z,16.04
2018-11-11T15:22:50.460Z,15.82
2018-11-11T15:25:20.469Z,15.60
2018-11-11T15:27:48.083Z,15.44
2018-11-11T15:30:18.156Z,15.38
2018-11-11T15:32:46.182Z,15.24
2018-11-11T15:35:13.764Z,15.04
2018-11-11T15:37:41.340Z,14.94
2018-11-11T15:40:11.332Z,14.74
2018-11-11T15:42:39.252Z,14.56
2018-11-11T15:45:11.533Z,14.32
2018-11-11T15:47:39.513Z,14.19
2018-11-11T15:50:11.978Z,14.20
2018-11-11T15:52:40.114Z,14.10
2018-11-11T15:55:09.584Z,13.92
2018-11-11T15:57:37.388Z,13.77
2018-11-11T16:00:07.703Z,13.62
2018-11-11T16:02:35.215Z,13.47
2018-11-11T16:05:02.843Z,13.36
2018-11-11T16:07:30.338Z,13.28
2018-11-11T16:09:57.800Z,13.19
2018-11-11T16:12:25.426Z,13.15
2018-11-11T16:14:53.103Z,13.08
2018-11-11T16:17:20.628Z,12.94
2018-11-11T16:19:48.179Z,12.85
2018-11-11T16:22:15.698Z,12.76
2018-11-11T16:24:43.257Z,12.68
2018-11-11T16:27:10.878Z,12.67
2018-11-11T16:29:38.507Z,12.57
2018-11-11T16:32:06.108Z,12.46
2018-11-11T16:34:33.607Z,12.37
2018-11-11T16:37:01.050Z,12.30
2018-11-11T16:39:28.539Z,12.30
2018-11-11T16:41:56.057Z,12.23
2018-11-11T16:44:23.509Z,12.26
2018-11-11T16:46:51.000Z,12.21
2018-11-11T16:49:18.496Z,12.21
2018-11-11T16:51:46.076Z,12.21
2018-11-11T16:54:13.611Z,12.31
2018-11-11T16:56:41.163Z,12.37
2018-11-11T16:59:08.691Z,12.50
2018-11-11T17:01:36.252Z,12.75
2018-11-11T17:04:03.947Z,12.82
2018-11-11T17:06:31.421Z,12.82
2018-11-11T17:08:58.879Z,12.81
2018-11-11T17:11:26.437Z,12.83
2018-11-11T17:13:53.875Z,12.86
2018-11-11T17:16:21.338Z,13.03
2018-11-11T17:18:48.848Z,13.01
2018-11-11T17:21:16.319Z,12.88
2018-11-11T17:23:43.742Z,12.72
2018-11-11T17:26:11.262Z,12.62
2018-11-11T17:28:38.782Z,12.50
2018-11-11T17:31:06.267Z,12.40
2018-11-11T17:33:33.891Z,12.28
2018-11-11T17:36:01.406Z,12.09
2018-11-11T17:38:28.851Z,11.99
2018-11-11T17:40:56.362Z,11.85
2018-11-11T17:43:23.833Z,11.75
2018-11-11T17:45:51.340Z,11.67
2018-11-11T17:48:18.883Z,11.62
2018-11-11T17:50:46.318Z,11.55
2018-11-11T17:53:13.865Z,11.45
2018-11-11T17:55:41.523Z,11.42
2018-11-11T17:58:08.911Z,11.41
2018-11-11T18:00:36.578Z,11.37
2018-11-11T18:03:04.543Z,11.61
2018-11-11T18:05:32.310Z,11.78
2018-11-11T18:08:00.113Z,11.77
2018-11-11T18:10:27.914Z,11.69
2018-11-11T18:12:55.483Z,11.61
2018-11-11T18:15:25.445Z,11.54
2018-11-11T18:17:53.101Z,11.48
2018-11-11T18:20:22.069Z,11.42
2018-11-11T18:22:50.557Z,11.34
2018-11-11T18:25:18.062Z,11.37
2018-11-11T18:27:45.660Z,11.42
2018-11-11T18:30:18.975Z,11.44
2018-11-11T18:32:46.718Z,11.53
2018-11-11T18:35:15.712Z,11.80
2018-11-11T18:37:43.219Z,11.86
2018-11-11T18:40:12.460Z,11.89
2018-11-11T18:42:39.867Z,11.90
2018-11-11T18:45:10.180Z,11.91
2018-11-11T18:47:37.758Z,11.89
2018-11-11T18:50:08.636Z,11.76
2018-11-11T18:52:36.302Z,11.61
2018-11-11T18:55:04.620Z,11.48
2018-11-11T18:57:32.166Z,11.54
2018-11-11T18:59:59.742Z,11.57
2018-11-11T19:02:27.222Z,11.61
2018-11-11T19:04:54.730Z,11.61
2018-11-11T19:07:23.794Z,11.51
2018-11-11T19:09:51.346Z,11.39
2018-11-11T19:12:18.935Z,11.24
2018-11-11T19:14:46.391Z,11.11
2018-11-11T19:17:13.907Z,11.01
2018-11-11T19:19:41.419Z,10.90
2018-11-11T19:22:09.114Z,10.88
2018-11-11T19:24:36.831Z,10.87
2018-11-11T19:27:04.579Z,10.85
2018-11-11T19:29:32.072Z,10.85
2018-11-11T19:31:59.568Z,10.84
2018-11-11T19:34:27.061Z,10.74
2018-11-11T19:36:54.677Z,10.67
2018-11-11T19:39:22.107Z,10.65
2018-11-11T19:41:49.974Z,10.75
2018-11-11T19:44:17.445Z,10.90
2018-11-11T19:46:45.075Z,10.98
2018-11-11T19:49:12.771Z,11.00
2018-11-11T19:51:40.362Z,11.04
2018-11-11T19:54:07.833Z,11.11
2018-11-11T19:56:35.373Z,11.19
2018-11-11T19:59:02.903Z,11.27
2018-11-11T20:01:30.537Z,11.36
2018-11-11T20:03:58.104Z,11.47
2018-11-11T20:06:25.704Z,11.57
2018-11-11T20:08:53.160Z,11.68
2018-11-11T20:11:20.835Z,11.76
2018-11-11T20:13:48.299Z,11.90
2018-11-11T20:16:15.827Z,12.16
2018-11-11T20:18:43.423Z,12.29
2018-11-11T20:21:10.932Z,12.32
2018-11-11T20:23:38.427Z,12.33
2018-11-11T20:26:05.893Z,12.32
2018-11-11T20:28:33.421Z,12.34
2018-11-11T20:31:00.961Z,12.39
2018-11-11T20:33:28.434Z,12.40
2018-11-11T20:35:55.934Z,12.40
2018-11-11T20:38:23.411Z,12.44
2018-11-11T20:40:50.904Z,12.48
2018-11-11T20:43:18.478Z,12.51
2018-11-11T20:45:46.016Z,12.53
2018-11-11T20:48:13.573Z,12.53
2018-11-11T20:50:41.143Z,12.48
2018-11-11T20:53:08.572Z,12.42
2018-11-11T20:55:36.159Z,12.39
2018-11-11T20:58:04.293Z,12.38
2018-11-11T21:00:34.151Z,12.35
2018-11-11T21:03:01.636Z,12.36
2018-11-11T21:05:29.601Z,12.40
2018-11-11T21:07:57.168Z,12.43
2018-11-11T21:10:25.814Z,12.46
2018-11-11T21:12:53.712Z,12.54
2018-11-11T21:15:22.586Z,12.57
2018-11-11T21:17:50.325Z,12.62
2018-11-11T21:20:33.795Z,12.62
2018-11-11T21:23:01.370Z,12.60
2018-11-11T21:25:29.006Z,12.55
2018-11-11T21:27:56.499Z,12.46
2018-11-11T21:30:25.539Z,12.48
2018-11-11T21:32:53.200Z,12.46
2018-11-11T21:35:20.815Z,12.42
2018-11-11T21:37:48.421Z,12.44
2018-11-11T21:40:17.209Z,12.55
2018-11-11T21:42:45.744Z,12.59
2018-11-11T21:45:14.669Z,12.65
2018-11-11T21:47:42.583Z,12.68
2018-11-11T21:50:14.974Z,12.65
2018-11-11T21:52:44.119Z,12.66
2018-11-11T21:55:11.647Z,12.64
2018-11-11T21:57:39.226Z,12.67
2018-11-11T22:00:09.125Z,12.74
2018-11-11T22:02:36.619Z,12.71
2018-11-11T22:05:05.841Z,12.70
2018-11-11T22:07:33.383Z,12.73
2018-11-11T22:10:00.896Z,12.82
2018-11-11T22:12:28.429Z,12.90
2018-11-11T22:14:56.017Z,12.94
2018-11-11T22:17:23.558Z,12.98
2018-11-11T22:19:51.183Z,13.01
2018-11-11T22:22:18.695Z,13.02
2018-11-11T22:24:46.241Z,13.05
2018-11-11T22:27:13.763Z,13.04
2018-11-11T22:29:41.243Z,13.05
2018-11-11T22:32:08.745Z,13.04
2018-11-11T22:34:36.285Z,13.01
2018-11-11T22:37:03.797Z,12.97
2018-11-11T22:39:31.227Z,12.94
2018-11-11T22:41:58.776Z,12.90
2018-11-11T22:44:26.205Z,12.82
2018-11-11T22:46:53.784Z,12.72
2018-11-11T22:49:21.295Z,12.70
2018-11-11T22:51:49.105Z,12.75
2018-11-11T22:54:16.697Z,12.77
2018-11-11T22:56:44.216Z,12.77
2018-11-11T22:59:11.669Z,12.73
2018-11-11T23:01:39.104Z,12.68
2018-11-11T23:04:06.534Z,12.57
2018-11-11T23:06:34.005Z,12.45
2018-11-11T23:09:01.530Z,12.37
2018-11-11T23:11:29.199Z,12.32
2018-11-11T23:13:56.760Z,12.32
2018-11-11T23:16:24.275Z,12.34
2018-11-11T23:18:51.915Z,12.38
2018-11-11T23:21:19.485Z,12.38
2018-11-11T23:23:46.985Z,12.37
2018-11-11T23:26:14.530Z,12.35
2018-11-11T23:28:41.963Z,12.32
2018-11-11T23:31:09.519Z,12.28
2018-11-11T23:33:37.279Z,12.26
2018-11-11T23:36:05.169Z,12.20
2018-11-11T23:38:32.868Z,12.09
2018-11-11T23:41:00.412Z,12.01
2018-11-11T23:43:27.807Z,11.88
2018-11-11T23:45:55.288Z,11.73
2018-11-11T23:48:22.788Z,11.60
2018-11-11T23:50:50.321Z,11.47
2018-11-11T23:53:17.909Z,11.38
2018-11-11T23:55:45.387Z,11.34
2018-11-11T23:58:12.926Z,11.35
